sensor_id;sensor_type;location;lat;lon;timestamp;P1;durP1;ratioP1;P2;durP2;ratioP2
70369;SDS011;57790;51.356;-2.906;2024-02-14T00:01:06;9.47;;;1.10;;
70369;SDS011;57790;51.356;-2.906;2024-02-14T00:04:08;11.30;;;1.45;;
70369;SDS011;57790;51.356;-2.906;2024-02-14T00:07:10;9.18;;;1.23;;
70369;SDS011;57790;51.356;-2.906;2024-02-14T00:10:11;10.60;;;1.10;;
70369;SDS011;57790;51.356;-2.906;2024-02-14T00:13:11;6.75;;;1.00;;
70369;SDS011;57790;51.356;-2.906;2024-02-14T00:16:12;9.07;;;1.40;;
70369;SDS011;57790;51.356;-2.906;2024-02-14T00:19:13;10.05;;;1.23;;
70369;SDS011;57790;51.356;-2.906;2024-02-14T00:22:14;8.63;;;1.20;;
70369;SDS011;57790;51.356;-2.906;2024-02-14T00:25:14;10.20;;;1.30;;
70369;SDS011;57790;51.356;-2.906;2024-02-14T00:28:15;11.32;;;1.20;;
70369;SDS011;57790;51.356;-2.906;2024-02-14T00:31:15;7.30;;;1.00;;
70369;SDS011;57790;51.356;-2.906;2024-02-14T00:34:16;7.93;;;1.07;;
70369;SDS011;57790;51.356;-2.906;2024-02-14T00:37:16;7.55;;;0.90;;
70369;SDS011;57790;51.356;-2.906;2024-02-14T00:40:17;7.73;;;1.00;;
70369;SDS011;57790;51.356;-2.906;2024-02-14T00:43:18;5.05;;;0.98;;
70369;SDS011;57790;51.356;-2.906;2024-02-14T00:46:18;9.27;;;1.20;;
70369;SDS011;57790;51.356;-2.906;2024-02-14T00:49:19;7.93;;;1.27;;
70369;SDS011;57790;51.356;-2.906;2024-02-14T00:52:19;6.47;;;1.17;;
70369;SDS011;57790;51.356;-2.906;2024-02-14T00:55:21;7.30;;;1.00;;
70369;SDS011;57790;51.356;-2.906;2024-02-14T00:58:22;8.93;;;1.00;;
70369;SDS011;57790;51.356;-2.906;2024-02-14T01:01:22;6.80;;;1.10;;
70369;SDS011;57790;51.356;-2.906;2024-02-14T01:04:23;7.77;;;1.33;;
70369;SDS011;57790;51.356;-2.906;2024-02-14T01:07:24;7.13;;;0.80;;
70369;SDS011;57790;51.356;-2.906;2024-02-14T01:10:24;6.57;;;0.90;;
70369;SDS011;57790;51.356;-2.906;2024-02-14T01:13:25;8.90;;;1.20;;
70369;SDS011;57790;51.356;-2.906;2024-02-14T01:16:25;6.50;;;0.90;;
70369;SDS011;57790;51.356;-2.906;2024-02-14T01:19:26;5.03;;;0.70;;
70369;SDS011;57790;51.356;-2.906;2024-02-14T01:22:28;6.85;;;0.80;;
70369;SDS011;57790;51.356;-2.906;2024-02-14T01:25:29;8.00;;;1.00;;
70369;SDS011;57790;51.356;-2.906;2024-02-14T01:28:29;7.43;;;0.60;;
70369;SDS011;57790;51.356;-2.906;2024-02-14T01:31:30;6.83;;;0.90;;
70369;SDS011;57790;51.356;-2.906;2024-02-14T01:34:31;6.93;;;0.77;;
70369;SDS011;57790;51.356;-2.906;2024-02-14T01:37:31;7.70;;;0.77;;
70369;SDS011;57790;51.356;-2.906;2024-02-14T01:40:32;5.90;;;0.70;;
70369;SDS011;57790;51.356;-2.906;2024-02-14T01:43:32;7.97;;;0.83;;
70369;SDS011;57790;51.356;-2.906;2024-02-14T01:46:32;7.03;;;1.37;;
70369;SDS011;57790;51.356;-2.906;2024-02-14T01:49:34;5.95;;;0.68;;
70369;SDS011;57790;51.356;-2.906;2024-02-14T01:52:35;3.47;;;0.80;;
70369;SDS011;57790;51.356;-2.906;2024-02-14T01:55:35;4.35;;;0.60;;
70369;SDS011;57790;51.356;-2.906;2024-02-14T01:58:36;4.07;;;0.77;;
70369;SDS011;57790;51.356;-2.906;2024-02-14T02:01:37;5.07;;;0.73;;
70369;SDS011;57790;51.356;-2.906;2024-02-14T02:04:38;3.17;;;0.70;;
70369;SDS011;57790;51.356;-2.906;2024-02-14T02:07:39;3.53;;;0.80;;
70369;SDS011;57790;51.356;-2.906;2024-02-14T02:10:42;2.80;;;0.60;;
70369;SDS011;57790;51.356;-2.906;2024-02-14T02:13:43;4.60;;;0.60;;
70369;SDS011;57790;51.356;-2.906;2024-02-14T02:16:43;2.70;;;0.60;;
70369;SDS011;57790;51.356;-2.906;2024-02-14T02:19:44;2.40;;;0.50;;
70369;SDS011;57790;51.356;-2.906;2024-02-14T02:22:47;4.35;;;0.70;;
70369;SDS011;57790;51.356;-2.906;2024-02-14T02:25:48;7.20;;;0.70;;
70369;SDS011;57790;51.356;-2.906;2024-02-14T02:28:50;3.85;;;0.60;;
70369;SDS011;57790;51.356;-2.906;2024-02-14T02:31:50;5.50;;;0.70;;
70369;SDS011;57790;51.356;-2.906;2024-02-14T02:34:52;5.53;;;0.60;;
70369;SDS011;57790;51.356;-2.906;2024-02-14T02:37:53;5.40;;;0.75;;
70369;SDS011;57790;51.356;-2.906;2024-02-14T02:40:53;4.50;;;0.88;;
70369;SDS011;57790;51.356;-2.906;2024-02-14T02:43:54;2.07;;;0.50;;
70369;SDS011;57790;51.356;-2.906;2024-02-14T02:46:54;2.80;;;0.70;;
70369;SDS011;57790;51.356;-2.906;2024-02-14T02:49:55;5.35;;;0.60;;
70369;SDS011;57790;51.356;-2.906;2024-02-14T02:52:57;3.38;;;0.55;;
70369;SDS011;57790;51.356;-2.906;2024-02-14T02:55:57;2.10;;;0.40;;
70369;SDS011;57790;51.356;-2.906;2024-02-14T02:58:59;4.07;;;0.60;;
70369;SDS011;57790;51.356;-2.906;2024-02-14T03:02:02;4.63;;;0.93;;
70369;SDS011;57790;51.356;-2.906;2024-02-14T03:05:03;2.42;;;0.40;;
70369;SDS011;57790;51.356;-2.906;2024-02-14T03:08:04;3.53;;;0.70;;
70369;SDS011;57790;51.356;-2.906;2024-02-14T03:11:07;4.63;;;0.52;;
70369;SDS011;57790;51.356;-2.906;2024-02-14T03:14:07;4.30;;;0.70;;
70369;SDS011;57790;51.356;-2.906;2024-02-14T03:17:08;4.55;;;0.50;;
70369;SDS011;57790;51.356;-2.906;2024-02-14T03:20:10;5.63;;;0.70;;
70369;SDS011;57790;51.356;-2.906;2024-02-14T03:23:15;4.50;;;0.43;;
70369;SDS011;57790;51.356;-2.906;2024-02-14T03:26:16;3.67;;;0.57;;
70369;SDS011;57790;51.356;-2.906;2024-02-14T03:29:16;3.93;;;0.60;;
70369;SDS011;57790;51.356;-2.906;2024-02-14T03:32:17;3.10;;;0.50;;
70369;SDS011;57790;51.356;-2.906;2024-02-14T03:35:17;5.50;;;0.53;;
70369;SDS011;57790;51.356;-2.906;2024-02-14T03:38:26;5.03;;;0.60;;
70369;SDS011;57790;51.356;-2.906;2024-02-14T03:41:26;5.33;;;0.67;;
70369;SDS011;57790;51.356;-2.906;2024-02-14T03:44:27;2.75;;;0.50;;
70369;SDS011;57790;51.356;-2.906;2024-02-14T03:47:28;5.03;;;0.80;;
70369;SDS011;57790;51.356;-2.906;2024-02-14T03:50:32;5.32;;;0.90;;
70369;SDS011;57790;51.356;-2.906;2024-02-14T03:53:33;4.77;;;0.50;;
70369;SDS011;57790;51.356;-2.906;2024-02-14T03:56:33;5.13;;;0.70;;
70369;SDS011;57790;51.356;-2.906;2024-02-14T03:59:36;4.83;;;0.70;;
70369;SDS011;57790;51.356;-2.906;2024-02-14T04:02:38;4.13;;;0.53;;
70369;SDS011;57790;51.356;-2.906;2024-02-14T04:05:39;3.85;;;0.60;;
70369;SDS011;57790;51.356;-2.906;2024-02-14T04:08:40;4.50;;;0.70;;
70369;SDS011;57790;51.356;-2.906;2024-02-14T04:11:40;5.53;;;0.73;;
70369;SDS011;57790;51.356;-2.906;2024-02-14T04:14:40;5.32;;;0.60;;
70369;SDS011;57790;51.356;-2.906;2024-02-14T04:17:41;3.87;;;0.50;;
70369;SDS011;57790;51.356;-2.906;2024-02-14T04:20:41;4.00;;;0.60;;
70369;SDS011;57790;51.356;-2.906;2024-02-14T04:23:44;4.75;;;0.63;;
70369;SDS011;57790;51.356;-2.906;2024-02-14T04:26:44;3.37;;;0.50;;
70369;SDS011;57790;51.356;-2.906;2024-02-14T04:29:45;6.73;;;0.73;;
70369;SDS011;57790;51.356;-2.906;2024-02-14T04:32:46;5.43;;;0.70;;
70369;SDS011;57790;51.356;-2.906;2024-02-14T04:35:47;4.63;;;0.70;;
70369;SDS011;57790;51.356;-2.906;2024-02-14T04:38:47;4.28;;;0.85;;
70369;SDS011;57790;51.356;-2.906;2024-02-14T04:41:48;5.20;;;0.93;;
70369;SDS011;57790;51.356;-2.906;2024-02-14T04:44:50;3.63;;;0.50;;
70369;SDS011;57790;51.356;-2.906;2024-02-14T04:47:50;4.70;;;0.60;;
70369;SDS011;57790;51.356;-2.906;2024-02-14T04:50:50;3.73;;;0.67;;
70369;SDS011;57790;51.356;-2.906;2024-02-14T04:53:52;3.47;;;0.65;;
70369;SDS011;57790;51.356;-2.906;2024-02-14T04:56:52;4.40;;;0.83;;
70369;SDS011;57790;51.356;-2.906;2024-02-14T04:59:52;6.17;;;1.33;;
70369;SDS011;57790;51.356;-2.906;2024-02-14T05:02:53;4.60;;;0.57;;
70369;SDS011;57790;51.356;-2.906;2024-02-14T05:05:53;4.50;;;0.70;;
70369;SDS011;57790;51.356;-2.906;2024-02-14T05:08:54;3.53;;;0.60;;
70369;SDS011;57790;51.356;-2.906;2024-02-14T05:11:54;5.17;;;0.60;;
70369;SDS011;57790;51.356;-2.906;2024-02-14T05:14:55;7.57;;;0.70;;
70369;SDS011;57790;51.356;-2.906;2024-02-14T05:17:56;5.63;;;0.60;;
70369;SDS011;57790;51.356;-2.906;2024-02-14T05:20:56;4.67;;;0.57;;
70369;SDS011;57790;51.356;-2.906;2024-02-14T05:23:58;6.20;;;0.65;;
70369;SDS011;57790;51.356;-2.906;2024-02-14T05:26:58;3.03;;;0.50;;
70369;SDS011;57790;51.356;-2.906;2024-02-14T05:29:59;3.60;;;0.57;;
70369;SDS011;57790;51.356;-2.906;2024-02-14T05:32:59;4.90;;;0.60;;
70369;SDS011;57790;51.356;-2.906;2024-02-14T05:36:00;3.63;;;0.53;;
70369;SDS011;57790;51.356;-2.906;2024-02-14T05:39:00;2.10;;;0.50;;
70369;SDS011;57790;51.356;-2.906;2024-02-14T05:42:00;3.33;;;0.50;;
70369;SDS011;57790;51.356;-2.906;2024-02-14T05:45:01;3.90;;;0.50;;
70369;SDS011;57790;51.356;-2.906;2024-02-14T05:48:03;1.77;;;0.50;;
70369;SDS011;57790;51.356;-2.906;2024-02-14T05:51:04;2.08;;;0.40;;
70369;SDS011;57790;51.356;-2.906;2024-02-14T05:54:04;2.23;;;0.50;;
70369;SDS011;57790;51.356;-2.906;2024-02-14T05:57:05;3.10;;;0.40;;
70369;SDS011;57790;51.356;-2.906;2024-02-14T06:00:06;3.00;;;0.40;;
70369;SDS011;57790;51.356;-2.906;2024-02-14T06:03:07;4.57;;;0.63;;
70369;SDS011;57790;51.356;-2.906;2024-02-14T06:06:08;2.57;;;0.50;;
70369;SDS011;57790;51.356;-2.906;2024-02-14T06:09:09;1.10;;;0.50;;
70369;SDS011;57790;51.356;-2.906;2024-02-14T06:12:12;3.63;;;0.50;;
70369;SDS011;57790;51.356;-2.906;2024-02-14T06:15:12;1.33;;;0.50;;
70369;SDS011;57790;51.356;-2.906;2024-02-14T06:18:13;2.80;;;0.53;;
70369;SDS011;57790;51.356;-2.906;2024-02-14T06:21:13;1.47;;;0.43;;
70369;SDS011;57790;51.356;-2.906;2024-02-14T06:24:14;1.97;;;0.43;;
70369;SDS011;57790;51.356;-2.906;2024-02-14T06:27:14;1.70;;;0.40;;
70369;SDS011;57790;51.356;-2.906;2024-02-14T06:30:15;2.57;;;0.60;;
70369;SDS011;57790;51.356;-2.906;2024-02-14T06:33:17;1.58;;;0.52;;
70369;SDS011;57790;51.356;-2.906;2024-02-14T06:36:17;2.20;;;0.40;;
70369;SDS011;57790;51.356;-2.906;2024-02-14T06:39:18;1.73;;;0.50;;
70369;SDS011;57790;51.356;-2.906;2024-02-14T06:42:18;1.37;;;0.40;;
70369;SDS011;57790;51.356;-2.906;2024-02-14T06:45:19;3.90;;;0.80;;
70369;SDS011;57790;51.356;-2.906;2024-02-14T06:48:19;1.37;;;0.40;;
70369;SDS011;57790;51.356;-2.906;2024-02-14T06:51:23;2.43;;;0.60;;
70369;SDS011;57790;51.356;-2.906;2024-02-14T06:54:24;3.60;;;0.50;;
70369;SDS011;57790;51.356;-2.906;2024-02-14T06:57:25;1.73;;;0.40;;
70369;SDS011;57790;51.356;-2.906;2024-02-14T07:00:25;4.57;;;0.50;;
70369;SDS011;57790;51.356;-2.906;2024-02-14T07:03:26;1.67;;;0.40;;
70369;SDS011;57790;51.356;-2.906;2024-02-14T07:06:26;2.40;;;0.50;;
70369;SDS011;57790;51.356;-2.906;2024-02-14T07:09:27;1.25;;;0.40;;
70369;SDS011;57790;51.356;-2.906;2024-02-14T07:12:29;2.03;;;0.50;;
70369;SDS011;57790;51.356;-2.906;2024-02-14T07:15:31;2.90;;;0.47;;
70369;SDS011;57790;51.356;-2.906;2024-02-14T07:18:31;1.20;;;0.40;;
70369;SDS011;57790;51.356;-2.906;2024-02-14T07:21:32;2.97;;;0.47;;
70369;SDS011;57790;51.356;-2.906;2024-02-14T07:24:33;1.57;;;0.43;;
70369;SDS011;57790;51.356;-2.906;2024-02-14T07:27:33;1.50;;;0.40;;
70369;SDS011;57790;51.356;-2.906;2024-02-14T07:30:34;3.00;;;0.40;;
70369;SDS011;57790;51.356;-2.906;2024-02-14T07:33:34;1.43;;;0.40;;
70369;SDS011;57790;51.356;-2.906;2024-02-14T07:36:34;1.73;;;0.40;;
70369;SDS011;57790;51.356;-2.906;2024-02-14T07:39:35;1.10;;;0.40;;
70369;SDS011;57790;51.356;-2.906;2024-02-14T07:42:35;2.63;;;0.32;;
70369;SDS011;57790;51.356;-2.906;2024-02-14T07:45:36;1.90;;;0.47;;
70369;SDS011;57790;51.356;-2.906;2024-02-14T07:48:36;2.30;;;0.40;;
70369;SDS011;57790;51.356;-2.906;2024-02-14T07:51:37;1.20;;;0.50;;
70369;SDS011;57790;51.356;-2.906;2024-02-14T07:54:37;2.95;;;0.50;;
70369;SDS011;57790;51.356;-2.906;2024-02-14T07:57:38;2.10;;;0.60;;
70369;SDS011;57790;51.356;-2.906;2024-02-14T08:00:39;2.85;;;0.60;;
70369;SDS011;57790;51.356;-2.906;2024-02-14T08:03:40;1.77;;;0.47;;
70369;SDS011;57790;51.356;-2.906;2024-02-14T08:06:40;2.33;;;0.50;;
70369;SDS011;57790;51.356;-2.906;2024-02-14T08:09:41;2.05;;;0.50;;
70369;SDS011;57790;51.356;-2.906;2024-02-14T08:12:41;1.53;;;0.40;;
70369;SDS011;57790;51.356;-2.906;2024-02-14T08:15:41;2.17;;;0.60;;
70369;SDS011;57790;51.356;-2.906;2024-02-14T08:18:42;1.90;;;0.50;;
70369;SDS011;57790;51.356;-2.906;2024-02-14T08:21:44;3.42;;;0.60;;
70369;SDS011;57790;51.356;-2.906;2024-02-14T08:24:45;2.15;;;0.50;;
70369;SDS011;57790;51.356;-2.906;2024-02-14T08:27:45;2.00;;;0.60;;
70369;SDS011;57790;51.356;-2.906;2024-02-14T08:30:47;2.90;;;0.40;;
70369;SDS011;57790;51.356;-2.906;2024-02-14T08:33:48;2.03;;;0.70;;
70369;SDS011;57790;51.356;-2.906;2024-02-14T08:36:48;1.60;;;0.50;;
70369;SDS011;57790;51.356;-2.906;2024-02-14T08:39:48;1.93;;;0.40;;
70369;SDS011;57790;51.356;-2.906;2024-02-14T08:42:49;1.93;;;0.50;;
70369;SDS011;57790;51.356;-2.906;2024-02-14T08:45:49;1.30;;;0.40;;
70369;SDS011;57790;51.356;-2.906;2024-02-14T08:48:51;2.43;;;0.30;;
70369;SDS011;57790;51.356;-2.906;2024-02-14T08:51:51;2.55;;;0.45;;
70369;SDS011;57790;51.356;-2.906;2024-02-14T08:54:52;1.30;;;0.50;;
70369;SDS011;57790;51.356;-2.906;2024-02-14T08:57:52;2.10;;;0.40;;
70369;SDS011;57790;51.356;-2.906;2024-02-14T09:00:53;2.23;;;0.70;;
70369;SDS011;57790;51.356;-2.906;2024-02-14T09:03:53;2.38;;;0.40;;
70369;SDS011;57790;51.356;-2.906;2024-02-14T09:06:54;1.80;;;0.50;;
70369;SDS011;57790;51.356;-2.906;2024-02-14T09:09:54;1.73;;;0.40;;
70369;SDS011;57790;51.356;-2.906;2024-02-14T09:12:55;1.70;;;0.50;;
70369;SDS011;57790;51.356;-2.906;2024-02-14T09:15:56;1.95;;;0.60;;
70369;SDS011;57790;51.356;-2.906;2024-02-14T09:18:56;1.73;;;0.50;;
70369;SDS011;57790;51.356;-2.906;2024-02-14T09:21:57;1.30;;;0.40;;
70369;SDS011;57790;51.356;-2.906;2024-02-14T09:24:58;2.10;;;0.45;;
70369;SDS011;57790;51.356;-2.906;2024-02-14T09:27:59;3.37;;;0.57;;
70369;SDS011;57790;51.356;-2.906;2024-02-14T09:30:59;2.40;;;0.63;;
70369;SDS011;57790;51.356;-2.906;2024-02-14T09:34:04;1.20;;;0.40;;
70369;SDS011;57790;51.356;-2.906;2024-02-14T09:37:05;1.50;;;0.50;;
70369;SDS011;57790;51.356;-2.906;2024-02-14T09:40:06;2.35;;;0.50;;
70369;SDS011;57790;51.356;-2.906;2024-02-14T09:43:18;2.03;;;0.50;;
70369;SDS011;57790;51.356;-2.906;2024-02-14T09:46:50;1.95;;;0.50;;
70369;SDS011;57790;51.356;-2.906;2024-02-14T09:49:52;1.07;;;0.40;;
70369;SDS011;57790;51.356;-2.906;2024-02-14T09:52:53;2.55;;;0.70;;
70369;SDS011;57790;51.356;-2.906;2024-02-14T09:55:54;1.63;;;0.40;;
70369;SDS011;57790;51.356;-2.906;2024-02-14T09:58:54;1.65;;;0.30;;
70369;SDS011;57790;51.356;-2.906;2024-02-14T10:02:00;1.75;;;0.50;;
70369;SDS011;57790;51.356;-2.906;2024-02-14T10:05:01;1.13;;;0.40;;
70369;SDS011;57790;51.356;-2.906;2024-02-14T10:08:01;2.35;;;0.50;;
70369;SDS011;57790;51.356;-2.906;2024-02-14T10:11:03;1.60;;;0.43;;
70369;SDS011;57790;51.356;-2.906;2024-02-14T10:14:04;3.17;;;0.43;;
70369;SDS011;57790;51.356;-2.906;2024-02-14T10:17:09;1.52;;;0.40;;
70369;SDS011;57790;51.356;-2.906;2024-02-14T10:20:17;1.92;;;0.50;;
70369;SDS011;57790;51.356;-2.906;2024-02-14T10:23:18;1.33;;;0.40;;
70369;SDS011;57790;51.356;-2.906;2024-02-14T10:26:19;2.17;;;0.50;;
70369;SDS011;57790;51.356;-2.906;2024-02-14T10:29:20;1.30;;;0.53;;
70369;SDS011;57790;51.356;-2.906;2024-02-14T10:32:21;1.10;;;0.30;;
70369;SDS011;57790;51.356;-2.906;2024-02-14T10:35:24;1.30;;;0.50;;
70369;SDS011;57790;51.356;-2.906;2024-02-14T10:38:25;2.17;;;0.50;;
70369;SDS011;57790;51.356;-2.906;2024-02-14T10:41:27;2.28;;;0.40;;
70369;SDS011;57790;51.356;-2.906;2024-02-14T10:44:35;1.00;;;0.40;;
70369;SDS011;57790;51.356;-2.906;2024-02-14T10:47:35;1.42;;;0.40;;
70369;SDS011;57790;51.356;-2.906;2024-02-14T10:50:42;1.97;;;0.50;;
70369;SDS011;57790;51.356;-2.906;2024-02-14T10:53:45;1.75;;;0.50;;
70369;SDS011;57790;51.356;-2.906;2024-02-14T10:56:49;1.48;;;0.50;;
70369;SDS011;57790;51.356;-2.906;2024-02-14T10:59:52;1.85;;;0.50;;
70369;SDS011;57790;51.356;-2.906;2024-02-14T11:02:54;1.50;;;0.40;;
70369;SDS011;57790;51.356;-2.906;2024-02-14T11:05:55;2.83;;;0.60;;
70369;SDS011;57790;51.356;-2.906;2024-02-14T11:09:01;2.25;;;0.40;;
70369;SDS011;57790;51.356;-2.906;2024-02-14T11:12:22;1.90;;;0.65;;
70369;SDS011;57790;51.356;-2.906;2024-02-14T11:15:24;1.10;;;0.40;;
70369;SDS011;57790;51.356;-2.906;2024-02-14T11:18:31;2.23;;;0.50;;
70369;SDS011;57790;51.356;-2.906;2024-02-14T11:21:41;1.40;;;0.47;;
70369;SDS011;57790;51.356;-2.906;2024-02-14T11:24:46;1.42;;;0.50;;
70369;SDS011;57790;51.356;-2.906;2024-02-14T11:27:47;2.92;;;0.73;;
70369;SDS011;57790;51.356;-2.906;2024-02-14T11:30:47;2.30;;;0.40;;
70369;SDS011;57790;51.356;-2.906;2024-02-14T11:33:48;1.52;;;0.52;;
70369;SDS011;57790;51.356;-2.906;2024-02-14T11:36:51;2.00;;;1.03;;
70369;SDS011;57790;51.356;-2.906;2024-02-14T11:39:51;2.28;;;0.50;;
70369;SDS011;57790;51.356;-2.906;2024-02-14T11:42:52;1.67;;;0.43;;
70369;SDS011;57790;51.356;-2.906;2024-02-14T11:45:52;1.90;;;0.50;;
70369;SDS011;57790;51.356;-2.906;2024-02-14T11:48:53;1.60;;;0.60;;
70369;SDS011;57790;51.356;-2.906;2024-02-14T11:51:53;4.20;;;0.60;;
70369;SDS011;57790;51.356;-2.906;2024-02-14T11:54:54;2.93;;;0.60;;
70369;SDS011;57790;51.356;-2.906;2024-02-14T11:57:54;2.17;;;0.50;;
70369;SDS011;57790;51.356;-2.906;2024-02-14T12:00:55;2.40;;;0.50;;
70369;SDS011;57790;51.356;-2.906;2024-02-14T12:03:55;1.97;;;0.67;;
70369;SDS011;57790;51.356;-2.906;2024-02-14T12:06:56;2.42;;;0.60;;
70369;SDS011;57790;51.356;-2.906;2024-02-14T12:09:57;1.87;;;0.50;;
70369;SDS011;57790;51.356;-2.906;2024-02-14T12:12:58;1.63;;;0.60;;
70369;SDS011;57790;51.356;-2.906;2024-02-14T12:16:04;2.42;;;0.52;;
70369;SDS011;57790;51.356;-2.906;2024-02-14T12:19:07;2.92;;;0.70;;
70369;SDS011;57790;51.356;-2.906;2024-02-14T12:22:13;6.97;;;1.37;;
70369;SDS011;57790;51.356;-2.906;2024-02-14T12:25:17;3.87;;;1.07;;
70369;SDS011;57790;51.356;-2.906;2024-02-14T12:28:18;3.63;;;1.10;;
70369;SDS011;57790;51.356;-2.906;2024-02-14T12:31:22;3.83;;;1.00;;
70369;SDS011;57790;51.356;-2.906;2024-02-14T12:34:23;3.97;;;0.90;;
70369;SDS011;57790;51.356;-2.906;2024-02-14T12:37:23;3.73;;;0.80;;
70369;SDS011;57790;51.356;-2.906;2024-02-14T12:40:24;2.88;;;0.70;;
70369;SDS011;57790;51.356;-2.906;2024-02-14T12:43:24;3.07;;;0.80;;
70369;SDS011;57790;51.356;-2.906;2024-02-14T12:46:25;4.47;;;1.03;;
70369;SDS011;57790;51.356;-2.906;2024-02-14T12:49:25;2.70;;;0.80;;
70369;SDS011;57790;51.356;-2.906;2024-02-14T12:52:26;4.90;;;0.70;;
70369;SDS011;57790;51.356;-2.906;2024-02-14T12:55:27;4.10;;;0.80;;
70369;SDS011;57790;51.356;-2.906;2024-02-14T12:58:28;2.97;;;0.70;;
70369;SDS011;57790;51.356;-2.906;2024-02-14T13:01:29;2.97;;;0.80;;
70369;SDS011;57790;51.356;-2.906;2024-02-14T13:04:29;2.80;;;0.63;;
70369;SDS011;57790;51.356;-2.906;2024-02-14T13:07:31;2.83;;;0.65;;
70369;SDS011;57790;51.356;-2.906;2024-02-14T13:10:31;4.33;;;0.70;;
70369;SDS011;57790;51.356;-2.906;2024-02-14T13:13:32;3.75;;;0.52;;
70369;SDS011;57790;51.356;-2.906;2024-02-14T13:16:32;3.97;;;0.50;;
70369;SDS011;57790;51.356;-2.906;2024-02-14T13:19:33;3.40;;;0.70;;
70369;SDS011;57790;51.356;-2.906;2024-02-14T13:22:33;3.33;;;0.70;;
70369;SDS011;57790;51.356;-2.906;2024-02-14T13:25:33;4.20;;;0.90;;
70369;SDS011;57790;51.356;-2.906;2024-02-14T13:28:34;4.17;;;0.80;;
70369;SDS011;57790;51.356;-2.906;2024-02-14T13:31:35;3.10;;;0.68;;
70369;SDS011;57790;51.356;-2.906;2024-02-14T13:34:35;3.40;;;0.67;;
70369;SDS011;57790;51.356;-2.906;2024-02-14T13:37:36;3.73;;;0.73;;
70369;SDS011;57790;51.356;-2.906;2024-02-14T13:40:36;4.30;;;0.73;;
70369;SDS011;57790;51.356;-2.906;2024-02-14T13:43:37;2.03;;;0.50;;
70369;SDS011;57790;51.356;-2.906;2024-02-14T13:46:38;3.70;;;0.80;;
70369;SDS011;57790;51.356;-2.906;2024-02-14T13:49:43;3.70;;;0.82;;
70369;SDS011;57790;51.356;-2.906;2024-02-14T13:52:43;4.97;;;1.03;;
70369;SDS011;57790;51.356;-2.906;2024-02-14T13:55:44;2.63;;;0.70;;
70369;SDS011;57790;51.356;-2.906;2024-02-14T13:58:45;4.73;;;0.70;;
70369;SDS011;57790;51.356;-2.906;2024-02-14T14:01:45;4.97;;;0.90;;
70369;SDS011;57790;51.356;-2.906;2024-02-14T14:04:47;6.40;;;1.00;;
70369;SDS011;57790;51.356;-2.906;2024-02-14T14:07:48;6.73;;;0.67;;
70369;SDS011;57790;51.356;-2.906;2024-02-14T14:10:48;6.38;;;0.88;;
70369;SDS011;57790;51.356;-2.906;2024-02-14T14:13:49;3.03;;;0.63;;
70369;SDS011;57790;51.356;-2.906;2024-02-14T14:16:49;8.20;;;1.17;;
70369;SDS011;57790;51.356;-2.906;2024-02-14T14:19:49;5.73;;;1.17;;
70369;SDS011;57790;51.356;-2.906;2024-02-14T14:22:50;5.63;;;0.80;;
70369;SDS011;57790;51.356;-2.906;2024-02-14T14:25:52;4.67;;;0.80;;
70369;SDS011;57790;51.356;-2.906;2024-02-14T14:28:52;4.00;;;0.97;;
70369;SDS011;57790;51.356;-2.906;2024-02-14T14:31:54;4.67;;;0.70;;
70369;SDS011;57790;51.356;-2.906;2024-02-14T14:34:54;2.78;;;0.60;;
70369;SDS011;57790;51.356;-2.906;2024-02-14T14:37:55;2.73;;;0.60;;
70369;SDS011;57790;51.356;-2.906;2024-02-14T14:40:56;4.82;;;0.60;;
70369;SDS011;57790;51.356;-2.906;2024-02-14T14:43:59;3.40;;;0.60;;
70369;SDS011;57790;51.356;-2.906;2024-02-14T14:46:59;3.25;;;0.75;;
70369;SDS011;57790;51.356;-2.906;2024-02-14T14:50:00;2.70;;;0.60;;
70369;SDS011;57790;51.356;-2.906;2024-02-14T14:53:00;4.40;;;0.80;;
70369;SDS011;57790;51.356;-2.906;2024-02-14T14:56:01;4.85;;;0.70;;
70369;SDS011;57790;51.356;-2.906;2024-02-14T14:59:02;3.97;;;0.60;;
70369;SDS011;57790;51.356;-2.906;2024-02-14T15:02:03;3.67;;;0.68;;
70369;SDS011;57790;51.356;-2.906;2024-02-14T15:05:05;3.75;;;0.90;;
70369;SDS011;57790;51.356;-2.906;2024-02-14T15:08:08;4.93;;;0.90;;
70369;SDS011;57790;51.356;-2.906;2024-02-14T15:11:08;4.93;;;0.93;;
70369;SDS011;57790;51.356;-2.906;2024-02-14T15:14:15;3.83;;;0.80;;
70369;SDS011;57790;51.356;-2.906;2024-02-14T15:17:15;4.03;;;0.85;;
70369;SDS011;57790;51.356;-2.906;2024-02-14T15:20:16;4.03;;;0.80;;
70369;SDS011;57790;51.356;-2.906;2024-02-14T15:23:16;5.30;;;0.70;;
70369;SDS011;57790;51.356;-2.906;2024-02-14T15:26:17;4.88;;;0.73;;
70369;SDS011;57790;51.356;-2.906;2024-02-14T15:29:18;4.35;;;0.85;;
70369;SDS011;57790;51.356;-2.906;2024-02-14T15:32:37;4.00;;;0.90;;
70369;SDS011;57790;51.356;-2.906;2024-02-14T15:35:57;7.30;;;0.90;;
70369;SDS011;57790;51.356;-2.906;2024-02-14T15:38:59;7.13;;;1.13;;
70369;SDS011;57790;51.356;-2.906;2024-02-14T15:42:00;5.93;;;0.90;;
70369;SDS011;57790;51.356;-2.906;2024-02-14T15:45:00;5.55;;;0.77;;
70369;SDS011;57790;51.356;-2.906;2024-02-14T15:48:00;4.50;;;0.60;;
70369;SDS011;57790;51.356;-2.906;2024-02-14T15:51:01;3.67;;;0.60;;
70369;SDS011;57790;51.356;-2.906;2024-02-14T15:54:01;2.47;;;0.63;;
70369;SDS011;57790;51.356;-2.906;2024-02-14T15:57:01;2.37;;;0.50;;
70369;SDS011;57790;51.356;-2.906;2024-02-14T16:00:02;1.40;;;0.60;;
70369;SDS011;57790;51.356;-2.906;2024-02-14T16:03:10;3.20;;;0.50;;
70369;SDS011;57790;51.356;-2.906;2024-02-14T16:06:11;4.25;;;0.60;;
70369;SDS011;57790;51.356;-2.906;2024-02-14T16:09:12;3.07;;;0.70;;
70369;SDS011;57790;51.356;-2.906;2024-02-14T16:12:12;3.75;;;0.70;;
70369;SDS011;57790;51.356;-2.906;2024-02-14T16:15:15;3.27;;;0.70;;
70369;SDS011;57790;51.356;-2.906;2024-02-14T16:18:17;3.63;;;0.60;;
70369;SDS011;57790;51.356;-2.906;2024-02-14T16:21:17;3.23;;;0.70;;
70369;SDS011;57790;51.356;-2.906;2024-02-14T16:24:18;2.45;;;0.50;;
70369;SDS011;57790;51.356;-2.906;2024-02-14T16:27:18;2.90;;;0.80;;
70369;SDS011;57790;51.356;-2.906;2024-02-14T16:30:18;1.77;;;0.60;;
70369;SDS011;57790;51.356;-2.906;2024-02-14T16:33:19;4.70;;;0.70;;
70369;SDS011;57790;51.356;-2.906;2024-02-14T16:36:19;3.03;;;0.60;;
70369;SDS011;57790;51.356;-2.906;2024-02-14T16:39:21;3.15;;;0.75;;
70369;SDS011;57790;51.356;-2.906;2024-02-14T16:42:21;3.03;;;0.70;;
70369;SDS011;57790;51.356;-2.906;2024-02-14T16:45:22;4.15;;;0.60;;
70369;SDS011;57790;51.356;-2.906;2024-02-14T16:48:24;4.32;;;0.80;;
70369;SDS011;57790;51.356;-2.906;2024-02-14T16:51:25;3.03;;;0.73;;
70369;SDS011;57790;51.356;-2.906;2024-02-14T16:54:28;2.03;;;0.70;;
70369;SDS011;57790;51.356;-2.906;2024-02-14T16:57:29;2.85;;;0.65;;
70369;SDS011;57790;51.356;-2.906;2024-02-14T17:00:29;4.40;;;1.20;;
70369;SDS011;57790;51.356;-2.906;2024-02-14T17:03:30;2.80;;;0.70;;
70369;SDS011;57790;51.356;-2.906;2024-02-14T17:06:30;3.43;;;0.60;;
70369;SDS011;57790;51.356;-2.906;2024-02-14T17:09:31;1.90;;;0.67;;
70369;SDS011;57790;51.356;-2.906;2024-02-14T17:12:32;2.63;;;0.70;;
70369;SDS011;57790;51.356;-2.906;2024-02-14T17:15:33;4.20;;;0.80;;
70369;SDS011;57790;51.356;-2.906;2024-02-14T17:18:33;3.05;;;0.70;;
70369;SDS011;57790;51.356;-2.906;2024-02-14T17:21:34;4.53;;;0.83;;
70369;SDS011;57790;51.356;-2.906;2024-02-14T17:24:34;4.70;;;0.80;;
70369;SDS011;57790;51.356;-2.906;2024-02-14T17:27:34;5.13;;;0.80;;
70369;SDS011;57790;51.356;-2.906;2024-02-14T17:30:35;3.58;;;0.80;;
70369;SDS011;57790;51.356;-2.906;2024-02-14T17:33:35;2.53;;;0.80;;
70369;SDS011;57790;51.356;-2.906;2024-02-14T17:36:36;2.97;;;0.70;;
70369;SDS011;57790;51.356;-2.906;2024-02-14T17:39:36;3.67;;;0.80;;
70369;SDS011;57790;51.356;-2.906;2024-02-14T17:42:38;4.97;;;1.07;;
70369;SDS011;57790;51.356;-2.906;2024-02-14T17:45:38;2.63;;;0.70;;
70369;SDS011;57790;51.356;-2.906;2024-02-14T17:48:39;3.85;;;0.80;;
70369;SDS011;57790;51.356;-2.906;2024-02-14T17:51:39;3.00;;;0.80;;
70369;SDS011;57790;51.356;-2.906;2024-02-14T17:54:47;4.22;;;0.95;;